Time,TemperatureF,DewpointF,PressureIn,WindDirection,WindDirectionDegrees,WindSpeedMPH,WindSpeedGustMPH,Humidity,HourlyPrecipIn,Conditions,Clouds,dailyrainin,SoftwareType,DateUTC
2013-04-05 00:00:00,36.3,20.8,29.81,SW,229,0.0,24.0,53,0.00,,,0.00,Wunderground v.1.13,2013-04-05 04:00:00,
2013-04-05 00:30:00,34.4,21.1,29.80,SW,229,0.0,24.0,58,0.00,,,0.00,Wunderground v.1.13,2013-04-05 04:30:00,
2013-04-05 01:00:00,32.9,20.5,29.79,SW,229,0.0,24.0,60,0.00,,,0.00,Wunderground v.1.13,2013-04-05 05:00:00,
2013-04-05 01:30:00,31.9,20.0,29.79,SW,229,0.0,24.0,61,0.00,,,0.00,Wunderground v.1.13,2013-04-05 05:30:00,
2013-04-05 02:00:00,31.3,22.3,29.78,SW,229,0.0,24.0,69,0.00,,,0.00,Wunderground v.1.13,2013-04-05 06:00:00,
2013-04-05 02:30:00,32.8,21.6,29.77,SW,229,0.0,24.0,63,0.00,,,0.00,Wunderground v.1.13,2013-04-05 06:30:00,
2013-04-05 03:00:00,34.4,20.3,29.76,SW,229,1.0,24.0,56,0.00,,,0.00,Wunderground v.1.13,2013-04-05 07:00:00,
2013-04-05 03:30:00,36.2,18.9,29.75,SW,229,1.0,1.0,49,0.00,,,0.00,Wunderground v.1.13,2013-04-05 07:30:00,
2013-04-05 04:00:00,37.2,18.8,29.75,SW,229,1.0,1.0,47,0.00,,,0.00,Wunderground v.1.13,2013-04-05 08:00:00,
2013-04-05 04:30:00,37.5,18.6,29.75,SW,229,0.0,24.0,46,0.00,,,0.00,Wunderground v.1.13,2013-04-05 08:30:00,
2013-04-05 05:00:00,38.2,20.7,29.75,WSW,254,3.0,24.0,49,0.00,,,0.00,Wunderground v.1.13,2013-04-05 09:00:00,
2013-04-05 05:30:00,35.0,28.8,29.75,SW,232,2.0,24.0,78,0.00,,,0.00,Wunderground v.1.13,2013-04-05 09:30:00,
2013-04-05 06:00:00,34.0,30.8,29.75,SW,220,3.0,24.0,88,0.09,,,0.02,Wunderground v.1.13,2013-04-05 10:00:00,
2013-04-05 06:30:00,34.0,31.6,29.75,SW,228,3.0,3.0,91,0.00,,,0.03,Wunderground v.1.13,2013-04-05 10:30:00,
2013-04-05 07:00:00,34.1,32.0,29.75,SW,236,3.0,3.0,92,0.00,,,0.04,Wunderground v.1.13,2013-04-05 11:00:00,
2013-04-05 07:30:00,34.3,32.5,29.77,SW,229,2.0,24.0,93,0.00,,,0.04,Wunderground v.1.13,2013-04-05 11:30:00,
2013-04-05 08:00:00,34.7,32.9,29.78,SW,229,2.0,2.0,93,0.00,,,0.04,Wunderground v.1.13,2013-04-05 12:00:00,
2013-04-05 08:30:00,35.3,33.2,29.78,WSW,238,3.0,24.0,92,0.00,,,0.04,Wunderground v.1.13,2013-04-05 12:30:00,
2013-04-05 09:00:00,37.0,34.1,29.78,WSW,238,4.0,4.0,89,0.00,,,0.04,Wunderground v.1.13,2013-04-05 13:00:00,
2013-04-05 09:30:00,38.9,34.5,29.78,SW,234,2.0,24.0,84,0.00,,,0.04,Wunderground v.1.13,2013-04-05 13:30:00,
2013-04-05 10:00:00,40.2,32.9,29.79,West,267,4.0,24.0,75,0.00,,,0.04,Wunderground v.1.13,2013-04-05 14:00:00,
2013-04-05 10:30:00,40.1,32.1,29.80,West,260,3.0,3.0,73,0.00,,,0.04,Wunderground v.1.13,2013-04-05 14:30:00,
2013-04-05 11:00:00,41.2,32.5,29.80,WNW,283,4.0,4.0,71,0.00,,,0.04,Wunderground v.1.13,2013-04-05 15:00:00,
2013-04-05 11:30:00,40.1,32.1,29.81,NNW,335,3.0,24.0,73,0.00,,,0.04,Wunderground v.1.13,2013-04-05 15:30:00,
2013-04-05 12:00:00,37.8,28.9,29.82,WNW,293,7.0,24.0,70,0.00,,,0.04,Wunderground v.1.13,2013-04-05 16:00:00,
2013-04-05 12:30:00,39.3,28.1,29.82,NNW,328,7.0,24.0,64,0.00,,,0.04,Wunderground v.1.13,2013-04-05 16:30:00,
2013-04-05 13:00:00,38.9,27.4,29.83,WNW,289,6.0,6.0,63,0.00,,,0.04,Wunderground v.1.13,2013-04-05 17:00:00,
2013-04-05 13:30:00,39.6,26.0,29.83,NNW,341,6.0,17.0,58,0.00,,,0.04,Wunderground v.1.13,2013-04-05 17:30:00,
2013-04-05 14:00:00,40.9,24.6,29.83,NW,322,6.0,17.0,52,0.00,,,0.04,Wunderground v.1.13,2013-04-05 18:00:00,
2013-04-05 14:30:00,39.8,25.4,29.83,WNW,296,4.0,17.0,56,0.00,,,0.04,Wunderground v.1.13,2013-04-05 18:30:00,
2013-04-05 15:00:00,39.6,25.2,29.83,NNW,329,5.0,5.0,56,0.00,,,0.04,Wunderground v.1.13,2013-04-05 19:00:00,
2013-04-05 15:30:00,39.3,24.0,29.83,NNW,331,6.0,6.0,54,0.00,,,0.04,Wunderground v.1.13,2013-04-05 19:30:00,
2013-04-05 16:00:00,39.3,22.2,29.83,NW,321,5.0,17.0,50,0.00,,,0.04,Wunderground v.1.13,2013-04-05 20:00:00,
2013-04-05 17:00:00,40.5,18.0,29.84,North,351,5.0,17.0,40,0.00,,,0.04,Wunderground v.1.13,2013-04-05 21:00:00,
2013-04-05 17:30:00,38.8,19.2,29.85,NNW,339,7.0,17.0,45,0.00,,,0.04,Wunderground v.1.13,2013-04-05 21:30:00,
2013-04-05 18:00:00,37.6,16.5,29.86,North,360,9.0,9.0,42,0.00,,,0.04,Wunderground v.1.13,2013-04-05 22:00:00,
2013-04-05 18:30:00,37.6,13.0,29.87,NNW,346,10.0,17.0,36,0.00,,,0.04,Wunderground v.1.13,2013-04-05 22:30:00,
2013-04-05 19:00:00,36.9,13.6,29.88,NW,311,7.0,17.0,38,0.00,,,0.04,Wunderground v.1.13,2013-04-05 23:00:00,
2013-04-05 19:30:00,35.6,13.6,29.90,NNW,331,5.0,5.0,40,0.00,,,0.04,Wunderground v.1.13,2013-04-05 23:30:00,
2013-04-05 20:00:00,34.9,13.5,29.91,North,355,5.0,5.0,41,0.00,,,0.04,Wunderground v.1.13,2013-04-06 00:00:00,
2013-04-05 20:30:00,34.0,14.3,29.93,WNW,302,3.0,17.0,44,0.00,,,0.04,Wunderground v.1.13,2013-04-06 00:30:00,
2013-04-05 21:00:00,33.2,13.6,29.95,NNW,328,4.0,4.0,44,0.00,,,0.04,Wunderground v.1.13,2013-04-06 01:00:00,
2013-04-05 21:30:00,32.2,13.7,29.97,North,360,4.0,17.0,46,0.00,,,0.04,Wunderground v.1.13,2013-04-06 01:30:00,
2013-04-05 22:00:00,31.5,13.6,29.98,NNW,348,2.0,17.0,47,0.00,,,0.04,Wunderground v.1.13,2013-04-06 02:00:00,
2013-04-05 22:30:00,31.0,13.6,29.98,NNW,331,2.0,2.0,48,0.00,,,0.04,Wunderground v.1.13,2013-04-06 02:30:00,
2013-04-05 23:00:00,30.9,14.0,29.99,NW,318,3.0,17.0,49,0.00,,,0.04,Wunderground v.1.13,2013-04-06 03:00:00,
2013-04-05 23:30:00,30.7,14.2,30.00,NNW,345,5.0,17.0,50,0.00,,,0.04,Wunderground v.1.13,2013-04-06 03:30:00,